| time (UTC) | temp C | wind direction | speed KPH | gust KPH | rain 1hr cm | rain 24hr cm | rain mn cm | humidity % | barometer mb |
| 20260510153604 | 12 | 7 | 4.8 | 19.3 | 0.00 | 0.00 | 0.00 | 67 | 1016.2 |
| 20260510153103 | 12 | 356 | 8.0 | 24.1 | 0.00 | 0.00 | 0.00 | 67 | 1016.3 |
| 20260510150603 | 12 | 345 | 8.0 | 22.5 | 0.00 | 0.00 | 0.00 | 68 | 1016.4 |
| 20260510150103 | 12 | 329 | 8.0 | 22.5 | 0.00 | 0.00 | 0.00 | 69 | 1016.4 |
| 20260510145103 | 12 | 353 | 4.8 | 12.9 | 0.00 | 0.00 | 0.00 | 70 | 1016.6 |
| 20260510144603 | 12 | 344 | 4.8 | 16.1 | 0.00 | 0.00 | 0.00 | 71 | 1016.6 |
| 20260510143103 | 12 | 346 | 4.8 | 14.5 | 0.00 | 0.00 | 0.00 | 72 | 1016.8 |
| 20260510141604 | 12 | 8 | 8.0 | 19.3 | 0.00 | 0.00 | 0.00 | 72 | 1016.9 |
| 20260510141103 | 11 | 323 | 4.8 | 11.3 | 0.00 | 0.00 | 0.00 | 73 | 1016.9 |
| 20260510135604 | 11 | 0 | 11.3 | 24.1 | 0.00 | 0.00 | 0.00 | 73 | 1017.0 |
| 20260510133103 | 11 | 313 | 4.8 | 16.1 | 0.00 | 0.00 | 0.00 | 74 | 1017.2 |
| 20260510132603 | 12 | 348 | 6.4 | 19.3 | 0.00 | 0.00 | 0.00 | 74 | 1017.1 |
| 20260510132103 | 12 | 345 | 9.7 | 20.9 | 0.00 | 0.00 | 0.00 | 73 | 1017.1 |
| 20260510130603 | 12 | 354 | 9.7 | 19.3 | 0.00 | 0.00 | 0.00 | 73 | 1017.2 |
| 20260510125103 | 12 | 11 | 8.0 | 22.5 | 0.00 | 0.00 | 0.00 | 73 | 1017.4 |
| 20260510124603 | 12 | 3 | 11.3 | 27.4 | 0.00 | 0.00 | 0.00 | 73 | 1017.3 |
| 20260510123603 | 12 | 331 | 8.0 | 19.3 | 0.00 | 0.00 | 0.00 | 72 | 1017.4 |
| 20260510123103 | 12 | 344 | 8.0 | 20.9 | 0.00 | 0.00 | 0.00 | 73 | 1017.4 |
| 20260510122603 | 12 | 347 | 8.0 | 22.5 | 0.00 | 0.00 | 0.00 | 73 | 1017.5 |
| 20260510121104 | 12 | 352 | 9.7 | 25.7 | 0.00 | 0.00 | 0.00 | 72 | 1017.5 |
| 20260510120603 | 12 | 6 | 11.3 | 29.0 | 0.00 | 0.00 | 0.00 | 72 | 1017.4 |
| 20260510120104 | 12 | 1 | 8.0 | 22.5 | 0.00 | 0.00 | 0.00 | 71 | 1017.5 |
| 20260510115604 | 12 | 347 | 8.0 | 19.3 | 0.00 | 0.00 | 0.00 | 71 | 1017.5 |
| 20260510112604 | 12 | 14 | 17.7 | 35.4 | 0.00 | 0.00 | 0.00 | 70 | 1017.7 |
| 20260510112103 | 13 | 348 | 12.9 | 29.0 | 0.00 | 0.00 | 0.00 | 70 | 1017.7 |
| 20260510105603 | 13 | 343 | 16.1 | 32.2 | 0.00 | 0.00 | 0.00 | 69 | 1017.8 |
| 20260510105103 | 13 | 11 | 19.3 | 32.2 | 0.00 | 0.00 | 0.00 | 68 | 1017.8 |
| 20260510104602 | 13 | 0 | 8.0 | 19.3 | 0.00 | 0.00 | 0.00 | 70 | 1018.0 |
| 20260510103104 | 13 | 347 | 11.3 | 29.0 | 0.00 | 0.00 | 0.00 | 69 | 1017.9 |
| 20260510100603 | 12 | 8 | 11.3 | 25.7 | 0.00 | 0.00 | 0.00 | 72 | 1018.1 |
| 20260510095603 | 12 | 7 | 14.5 | 32.2 | 0.00 | 0.00 | 0.00 | 72 | 1018.2 |
| 20260510093603 | 11 | 329 | 4.8 | 19.3 | 0.00 | 0.00 | 0.00 | 74 | 1018.3 |
| 20260510093104 | 11 | 347 | 4.8 | 22.5 | 0.00 | 0.00 | 0.00 | 74 | 1018.3 |
| 20260510092603 | 11 | 359 | 14.5 | 27.4 | 0.00 | 0.00 | 0.00 | 75 | 1018.4 |
| 20260510091103 | 11 | 350 | 11.3 | 20.9 | 0.00 | 0.00 | 0.00 | 75 | 1018.6 |
| 20260510090603 | 11 | 336 | 11.3 | 24.1 | 0.00 | 0.00 | 0.00 | 75 | 1018.7 |
| 20260510085603 | 11 | 358 | 9.7 | 29.0 | 0.00 | 0.00 | 0.00 | 76 | 1018.6 |
| 20260510084103 | 11 | 348 | 9.7 | 24.1 | 0.00 | 0.00 | 0.00 | 77 | 1018.7 |
| 20260510082603 | 11 | 326 | 4.8 | 24.1 | 0.00 | 0.00 | 0.00 | 78 | 1018.8 |
| 20260510082103 | 10 | 0 | 8.0 | 20.9 | 0.00 | 0.00 | 0.00 | 78 | 1018.8 |
| 20260510081603 | 10 | 338 | 8.0 | 14.5 | 0.00 | 0.00 | 0.00 | 78 | 1018.7 |
| 20260510081103 | 10 | 309 | 4.8 | 24.1 | 0.00 | 0.00 | 0.00 | 78 | 1018.8 |
| 20260510080103 | 10 | 356 | 9.7 | 27.4 | 0.00 | 0.00 | 0.00 | 79 | 1018.9 |
| 20260510074103 | 10 | 345 | 9.7 | 27.4 | 0.00 | 0.00 | 0.00 | 78 | 1018.8 |
| 20260510073104 | 10 | 348 | 9.7 | 20.9 | 0.00 | 0.00 | 0.00 | 79 | 1018.7 |
| 20260510072603 | 10 | 355 | 9.7 | 24.1 | 0.00 | 0.00 | 0.00 | 79 | 1018.6 |
| 20260510070104 | 10 | 356 | 4.8 | 19.3 | 0.00 | 0.00 | 0.00 | 81 | 1018.4 |
| 20260510064103 | 9 | 354 | 9.7 | 19.3 | 0.00 | 0.00 | 0.00 | 82 | 1018.3 |
| 20260510063604 | 9 | 6 | 16.1 | 27.4 | 0.00 | 0.00 | 0.00 | 82 | 1018.2 |
| 20260510061603 | 9 | 13 | 6.4 | 16.1 | 0.00 | 0.00 | 0.00 | 84 | 1018.3 |
| 20260510061104 | 9 | 318 | 3.2 | 11.3 | 0.00 | 0.00 | 0.00 | 84 | 1018.2 |
| 20260510055603 | 8 | 18 | 8.0 | 22.5 | 0.00 | 0.00 | 0.00 | 85 | 1018.4 |
| 20260510054103 | 8 | 352 | 4.8 | 11.3 | 0.00 | 0.00 | 0.00 | 86 | 1018.3 |
| 20260510052102 | 8 | 3 | 4.8 | 19.3 | 0.00 | 0.00 | 0.00 | 86 | 1018.4 |
| 20260510051103 | 8 | 355 | 8.0 | 11.3 | 0.00 | 0.00 | 0.00 | 86 | 1018.4 |
| 20260510050603 | 8 | 334 | 4.8 | 16.1 | 0.00 | 0.00 | 0.00 | 86 | 1018.4 |
| 20260510045603 | 8 | 352 | 3.2 | 11.3 | 0.00 | 0.00 | 0.00 | 86 | 1018.4 |
| 20260510045104 | 8 | 317 | 4.8 | 14.5 | 0.00 | 0.00 | 0.00 | 86 | 1018.3 |
| 20260510044103 | 8 | 3 | 8.0 | 19.3 | 0.00 | 0.00 | 0.00 | 86 | 1018.4 |
| 20260510043603 | 8 | 8 | 8.0 | 20.9 | 0.00 | 0.00 | 0.00 | 86 | 1018.3 |
| 20260510042603 | 8 | 2 | 8.0 | 19.3 | 0.00 | 0.00 | 0.00 | 87 | 1018.3 |
| 20260510041103 | 8 | 4 | 4.8 | 12.9 | 0.00 | 0.00 | 0.00 | 87 | 1018.3 |
| 20260510035103 | 8 | 5 | 4.8 | 19.3 | 0.00 | 0.00 | 0.00 | 87 | 1018.4 |
| 20260510034103 | 8 | 356 | 4.8 | 14.5 | 0.00 | 0.00 | 0.00 | 86 | 1018.5 |
| 20260510033603 | 8 | 345 | 4.8 | 11.3 | 0.00 | 0.00 | 0.00 | 86 | 1018.6 |
| 20260510031603 | 8 | 345 | 3.2 | 16.1 | 0.00 | 0.00 | 0.00 | 84 | 1018.8 |
| 20260510030103 | 8 | 356 | 3.2 | 16.1 | 0.00 | 0.00 | 0.00 | 82 | 1018.9 |
| 20260510025604 | 8 | 0 | 4.8 | 19.3 | 0.00 | 0.00 | 0.00 | 82 | 1018.8 |
| 20260510025103 | 8 | 351 | 6.4 | 19.3 | 0.00 | 0.00 | 0.00 | 81 | 1018.8 |
| 20260510024603 | 8 | 9 | 6.4 | 16.1 | 0.00 | 0.00 | 0.00 | 80 | 1018.8 |
| 20260510024103 | 8 | 346 | 8.0 | 20.9 | 0.00 | 0.00 | 0.00 | 80 | 1018.8 |
| 20260510022603 | 9 | 357 | 4.8 | 14.5 | 0.00 | 0.00 | 0.00 | 78 | 1018.7 |
| 20260510020105 | 9 | 346 | 4.8 | 14.5 | 0.00 | 0.00 | 0.00 | 76 | 1018.7 |
| 20260510015103 | 9 | 4 | 8.0 | 19.3 | 0.00 | 0.00 | 0.00 | 76 | 1018.6 |
| 20260510014603 | 9 | 358 | 4.8 | 16.1 | 0.00 | 0.00 | 0.00 | 75 | 1018.5 |
| 20260510014103 | 10 | 351 | 8.0 | 16.1 | 0.00 | 0.00 | 0.00 | 75 | 1018.5 |
| 20260510012604 | 10 | 356 | 6.4 | 19.3 | 0.00 | 0.00 | 0.00 | 73 | 1018.6 |
| 20260510011103 | 10 | 348 | 6.4 | 12.9 | 0.00 | 0.00 | 0.00 | 70 | 1018.7 |
| 20260510010103 | 10 | 9 | 8.0 | 14.5 | 0.00 | 0.00 | 0.00 | 69 | 1018.7 |
| 20260510003603 | 11 | 350 | 8.0 | 19.3 | 0.00 | 0.00 | 0.00 | 65 | 1018.5 |
| 20260510002103 | 11 | 358 | 8.0 | 25.7 | 0.00 | 0.00 | 0.00 | 64 | 1018.5 |
| 20260510000603 | 11 | 355 | 9.7 | 19.3 | 0.00 | 0.00 | 0.00 | 63 | 1018.5 |
| 20260510000103 | 11 | 342 | 6.4 | 19.3 | 0.00 | 0.00 | 0.00 | 63 | 1018.5 |
| 20260509234103 | 12 | 5 | 8.0 | 14.5 | 0.00 | 0.00 | 0.00 | 65 | 1018.5 |
| 20260509233603 | 12 | 1 | 6.4 | 19.3 | 0.00 | 0.00 | 0.00 | 65 | 1018.5 |
| 20260509233103 | 12 | 0 | 6.4 | 19.3 | 0.00 | 0.00 | 0.00 | 65 | 1018.4 |
| 20260509232604 | 12 | 351 | 6.4 | 11.3 | 0.00 | 0.00 | 0.00 | 65 | 1018.4 |
| 20260509231104 | 12 | 338 | 6.4 | 11.3 | 0.00 | 0.00 | 0.00 | 65 | 1018.1 |
| 20260509230103 | 12 | 349 | 4.8 | 14.5 | 0.00 | 0.00 | 0.00 | 64 | 1017.9 |
| 20260509225604 | 12 | 337 | 6.4 | 19.3 | 0.00 | 0.00 | 0.00 | 64 | 1017.9 |
| 20260509225103 | 12 | 10 | 3.2 | 12.9 | 0.00 | 0.00 | 0.00 | 64 | 1018.0 |
| 20260509224603 | 12 | 357 | 4.8 | 14.5 | 0.00 | 0.00 | 0.00 | 64 | 1018.0 |
| 20260509223603 | 13 | 348 | 8.0 | 16.1 | 0.00 | 0.00 | 0.00 | 65 | 1017.9 |
| 20260509222104 | 13 | 348 | 4.8 | 11.3 | 0.00 | 0.00 | 0.00 | 65 | 1018.0 |
| 20260509215103 | 13 | 343 | 3.2 | 9.7 | 0.00 | 0.00 | 0.00 | 62 | 1017.9 |
| 20260509214103 | 14 | 332 | 3.2 | 11.3 | 0.00 | 0.00 | 0.00 | 62 | 1017.8 |
| 20260509213604 | 14 | 328 | 3.2 | 8.0 | 0.00 | 0.00 | 0.00 | 61 | 1017.7 |
| 20260509212103 | 15 | 4 | 4.8 | 14.5 | 0.00 | 0.00 | 0.00 | 60 | 1017.7 |
| 20260509211604 | 15 | 354 | 6.4 | 14.5 | 0.00 | 0.00 | 0.00 | 59 | 1017.6 |
| 20260509210103 | 15 | 3 | 3.2 | 14.5 | 0.00 | 0.00 | 0.00 | 58 | 1017.5 |
| 20260509205604 | 15 | 5 | 3.2 | 9.7 | 0.00 | 0.00 | 0.00 | 58 | 1017.5 |
| 20260509205103 | 15 | 357 | 4.8 | 11.3 | 0.00 | 0.00 | 0.00 | 58 | 1017.4 |
| 20260509203603 | 15 | 355 | 4.8 | 11.3 | 0.00 | 0.00 | 0.00 | 59 | 1017.3 |
| 20260509203104 | 15 | 345 | 3.2 | 9.7 | 0.00 | 0.00 | 0.00 | 59 | 1017.2 |
| 20260509202603 | 15 | 353 | 4.8 | 11.3 | 0.00 | 0.00 | 0.00 | 58 | 1017.3 |
| 20260509202104 | 15 | 4 | 4.8 | 11.3 | 0.00 | 0.00 | 0.00 | 58 | 1017.3 |
| 20260509201603 | 16 | 359 | 4.8 | 8.0 | 0.00 | 0.00 | 0.00 | 58 | 1017.2 |
| 20260509200603 | 16 | 351 | 6.4 | 11.3 | 0.00 | 0.00 | 0.00 | 58 | 1017.2 |
| 20260509195602 | 16 | 356 | 4.8 | 14.5 | 0.00 | 0.00 | 0.00 | 57 | 1017.0 |
| 20260509194603 | 16 | 357 | 4.8 | 11.3 | 0.00 | 0.00 | 0.00 | 57 | 1017.0 |
| 20260509194103 | 16 | 358 | 4.8 | 12.9 | 0.00 | 0.00 | 0.00 | 56 | 1017.0 |
| 20260509193603 | 17 | 359 | 4.8 | 12.9 | 0.00 | 0.00 | 0.00 | 56 | 1017.0 |
| 20260509193103 | 17 | 344 | 4.8 | 12.9 | 0.00 | 0.00 | 0.00 | 56 | 1017.0 |
| 20260509192103 | 17 | 342 | 6.4 | 12.9 | 0.00 | 0.00 | 0.00 | 56 | 1016.8 |
| 20260509191603 | 17 | 345 | 4.8 | 11.3 | 0.00 | 0.00 | 0.00 | 55 | 1016.8 |
| 20260509190603 | 18 | 350 | 3.2 | 11.3 | 0.00 | 0.00 | 0.00 | 54 | 1016.8 |
| 20260509185603 | 18 | 356 | 4.8 | 12.9 | 0.00 | 0.00 | 0.00 | 52 | 1016.8 |
| 20260509185103 | 18 | 13 | 4.8 | 9.7 | 0.00 | 0.00 | 0.00 | 52 | 1016.8 |
| 20260509184603 | 18 | 329 | 3.2 | 9.7 | 0.00 | 0.00 | 0.00 | 52 | 1016.8 |
| 20260509184103 | 18 | 355 | 8.0 | 14.5 | 0.00 | 0.00 | 0.00 | 52 | 1016.7 |
| 20260509183105 | 18 | 356 | 8.0 | 12.9 | 0.00 | 0.00 | 0.00 | 51 | 1016.7 |
| 20260509181103 | 18 | 342 | 4.8 | 9.7 | 0.00 | 0.00 | 0.00 | 51 | 1016.6 |
| 20260509173103 | 19 | 1 | 11.3 | 24.1 | 0.00 | 0.00 | 0.00 | 51 | 1016.3 |
| 20260509172103 | 20 | 355 | 9.7 | 25.7 | 0.00 | 0.00 | 0.00 | 49 | 1016.4 |
| 20260509171604 | 20 | 10 | 3.2 | 11.3 | 0.00 | 0.00 | 0.00 | 49 | 1016.4 |
| 20260509165603 | 20 | 352 | 8.0 | 19.3 | 0.00 | 0.00 | 0.00 | 49 | 1016.4 |
| 20260509165104 | 20 | 351 | 16.1 | 25.7 | 0.00 | 0.00 | 0.00 | 49 | 1016.4 |
| 20260509164603 | 20 | 0 | 9.7 | 22.5 | 0.00 | 0.00 | 0.00 | 49 | 1016.5 |
| 20260509163603 | 20 | 355 | 4.8 | 9.7 | 0.00 | 0.00 | 0.00 | 49 | 1016.5 |
| 20260509163104 | 20 | 351 | 3.2 | 20.9 | 0.00 | 0.00 | 0.00 | 49 | 1016.5 |
| 20260509162604 | 20 | 0 | 8.0 | 19.3 | 0.00 | 0.00 | 0.00 | 50 | 1016.6 |
| 20260509162104 | 20 | 350 | 6.4 | 19.3 | 0.00 | 0.00 | 0.00 | 50 | 1016.6 |
| 20260509161603 | 20 | 340 | 9.7 | 19.3 | 0.00 | 0.00 | 0.00 | 49 | 1016.5 |
| 20260509161104 | 20 | 348 | 9.7 | 19.3 | 0.00 | 0.00 | 0.00 | 49 | 1016.5 |
| 20260509160603 | 20 | 351 | 6.4 | 12.9 | 0.00 | 0.00 | 0.00 | 50 | 1016.5 |
| 20260509160104 | 20 | 4 | 4.8 | 12.9 | 0.00 | 0.00 | 0.00 | 49 | 1016.5 |
| 20260509155603 | 20 | 11 | 6.4 | 11.3 | 0.00 | 0.00 | 0.00 | 48 | 1016.6 |
| 20260509155104 | 20 | 352 | 3.2 | 9.7 | 0.00 | 0.00 | 0.00 | 49 | 1016.5 |